TAF Text Data
IDs:
Format:
Raw Decoded Include METAR

Data at: 1353 UTC 27 Nov 2021

KHIE 271322Z 2713/2812 28012G22KT 6SM -SN OVC025
  TEMPO 2713/2717 2SM -SN BR BKN015
  FM280000 24005KT P6SM OVC025